Time;durP1;ratioP1;P1;durP2;ratioP2;P2;SDS_P1;SDS_P2;PMS_P1;PMS_P2;Temp;Humidity;BMP_temperature;BMP_pressure;BME280_temperature;BME280_humidity;BME280_pressure;Samples;Min_cycle;Max_cycle;Signal;HPM_P1;HPM_P2
2022/09/22 00:01:38;;;;;;;19.43;11.97;;;21.70;43.20;;;;;;5010152;28;20544;-80
2022/09/22 00:04:08;;;;;;;21.57;12.83;;;21.70;43.10;;;;;;5006735;28;20465;-80
2022/09/22 00:06:38;;;;;;;18.47;12.37;;;21.60;43.20;;;;;;4996644;28;20444;-80
2022/09/22 00:09:09;;;;;;;17.20;12.27;;;21.60;43.20;;;;;;5015395;28;20456;-80
2022/09/22 00:11:37;;;;;;;19.37;12.43;;;21.50;43.40;;;;;;5006801;28;20472;-80
2022/09/22 00:14:07;;;;;;;19.13;12.17;;;21.50;43.50;;;;;;5006460;28;20451;-80
2022/09/22 00:16:36;;;;;;;19.23;12.20;;;21.50;43.50;;;;;;5005807;28;20463;-80
2022/09/22 00:19:05;;;;;;;19.43;12.43;;;21.50;43.60;;;;;;5005829;28;20457;-80
2022/09/22 00:21:33;;;;;;;20.63;12.07;;;21.50;43.50;;;;;;5008487;28;20489;-80
2022/09/22 00:24:03;;;;;;;16.33;11.63;;;21.40;43.60;;;;;;5019609;28;20452;-80
2022/09/22 00:26:31;;;;;;;17.27;11.67;;;21.40;43.40;;;;;;5008978;28;20446;-80
2022/09/22 00:29:00;;;;;;;18.23;11.63;;;21.40;43.60;;;;;;5008175;28;20465;-80
2022/09/22 00:31:28;;;;;;;17.40;12.57;;;21.30;43.60;;;;;;5003395;28;20469;-80
2022/09/22 00:33:57;;;;;;;19.20;11.43;;;21.30;43.60;;;;;;5009297;28;20489;-80
2022/09/22 00:36:25;;;;;;;18.23;11.70;;;21.30;43.90;;;;;;5007748;28;20465;-80
2022/09/22 00:38:55;;;;;;;17.97;11.43;;;21.30;43.70;;;;;;5005494;28;20440;-80
2022/09/22 00:41:27;;;;;;;16.73;11.63;;;21.30;43.70;;;;;;5012773;28;20452;-80
2022/09/22 00:44:26;;;;;;;19.60;10.73;;;21.30;43.70;;;;;;5012441;28;20630;-81
2022/09/22 00:46:56;;;;;;;22.57;12.50;;;21.20;43.60;;;;;;5007374;28;20431;-81
2022/09/22 00:49:27;;;;;;;20.23;11.53;;;21.20;43.80;;;;;;5007360;28;20456;-80
2022/09/22 00:51:55;;;;;;;20.10;11.40;;;21.20;43.80;;;;;;5006294;28;20508;-80
2022/09/22 00:54:23;;;;;;;18.90;11.00;;;21.10;43.90;;;;;;5004968;28;21054;-78
2022/09/22 00:56:55;;;;;;;17.67;11.47;;;21.20;44.20;;;;;;5012314;28;20485;-80
2022/09/22 00:59:23;;;;;;;15.17;11.00;;;21.10;44.00;;;;;;5001454;28;20465;-79
2022/09/22 01:01:51;;;;;;;18.60;11.43;;;21.10;43.80;;;;;;5011263;28;20465;-79
2022/09/22 01:04:19;;;;;;;15.37;11.67;;;21.00;43.90;;;;;;5008692;28;20453;-79
2022/09/22 01:06:48;;;;;;;16.07;10.70;;;21.00;44.10;;;;;;5007097;28;20496;-79
2022/09/22 01:09:16;;;;;;;15.53;10.77;;;21.00;44.30;;;;;;5006428;28;20531;-78
2022/09/22 01:11:44;;;;;;;13.27;10.00;;;21.00;44.10;;;;;;5017869;28;20457;-79
2022/09/22 01:14:18;;;;;;;18.67;11.77;;;21.00;44.10;;;;;;5011567;28;20475;-81
2022/09/22 01:17:00;;;;;;;13.80;11.03;;;21.00;44.20;;;;;;5011580;28;20449;-80
2022/09/22 01:20:01;;;;;;;15.77;11.83;;;20.90;43.90;;;;;;5003571;28;20485;-80
2022/09/22 01:22:50;;;;;;;14.47;10.50;;;20.90;44.20;;;;;;5002690;28;20472;-80
2022/09/22 01:25:32;;;;;;;15.00;10.47;;;20.80;44.10;;;;;;5001284;28;20445;-80
2022/09/22 01:28:19;;;;;;;16.90;10.43;;;20.80;44.20;;;;;;5007347;28;20457;-80
2022/09/22 01:30:49;;;;;;;19.70;12.03;;;20.80;44.40;;;;;;5008308;28;20461;-80
2022/09/22 01:33:27;;;;;;;15.17;10.67;;;20.80;44.30;;;;;;5001569;28;20433;-80
2022/09/22 01:36:01;;;;;;;12.10;9.57;;;20.80;44.00;;;;;;5015947;28;20469;-80
2022/09/22 01:38:32;;;;;;;16.00;10.90;;;20.70;44.30;;;;;;5003122;28;20441;-80
2022/09/22 01:41:02;;;;;;;19.80;11.27;;;20.70;44.30;;;;;;5008543;28;20472;-81
2022/09/22 01:43:35;;;;;;;18.13;11.63;;;20.70;44.60;;;;;;5011262;28;20461;-80
2022/09/22 01:46:06;;;;;;;17.30;12.17;;;20.70;44.40;;;;;;5014252;28;20460;-81
2022/09/22 01:48:34;;;;;;;24.60;13.27;;;20.60;44.60;;;;;;5011214;28;20457;-81
2022/09/22 01:51:05;;;;;;;20.37;13.23;;;20.70;44.70;;;;;;5013630;28;20484;-81
2022/09/22 01:53:35;;;;;;;22.30;13.73;;;20.60;44.60;;;;;;5009310;28;20460;-81
2022/09/22 01:56:05;;;;;;;24.77;14.00;;;20.60;44.50;;;;;;5021073;28;20475;-80
2022/09/22 01:58:34;;;;;;;22.10;14.20;;;20.60;44.50;;;;;;5013917;28;20449;-81
2022/09/22 02:01:06;;;;;;;22.87;14.50;;;20.50;44.40;;;;;;5008551;28;20478;-80
2022/09/22 02:03:42;;;;;;;23.50;14.63;;;20.50;44.60;;;;;;5018536;28;20453;-80
2022/09/22 02:06:12;;;;;;;22.57;15.10;;;20.50;44.60;;;;;;5009697;28;20457;-81
2022/09/22 02:08:42;;;;;;;20.43;13.90;;;20.50;44.80;;;;;;5011864;28;20464;-80
2022/09/22 02:11:12;;;;;;;23.60;15.17;;;20.50;44.60;;;;;;5011085;28;20483;-80
2022/09/22 02:13:41;;;;;;;29.30;15.77;;;20.50;44.70;;;;;;5011184;28;20453;-80
2022/09/22 02:16:10;;;;;;;23.53;15.73;;;20.40;44.70;;;;;;5011630;28;20483;-80
2022/09/22 02:18:41;;;;;;;23.83;14.90;;;20.40;44.70;;;;;;5005971;28;20453;-80
2022/09/22 02:21:09;;;;;;;25.53;15.70;;;20.40;44.70;;;;;;5010629;28;20470;-81
2022/09/22 02:23:37;;;;;;;24.53;16.13;;;20.40;44.60;;;;;;5012658;28;20480;-80
2022/09/22 02:26:05;;;;;;;24.87;15.73;;;20.30;44.60;;;;;;5011605;28;20453;-80
2022/09/22 02:28:34;;;;;;;21.33;14.87;;;20.30;44.80;;;;;;5010444;28;20453;-80
2022/09/22 02:31:02;;;;;;;24.57;15.37;;;20.30;44.70;;;;;;5012763;28;20465;-80
2022/09/22 02:33:48;;;;;;;26.70;15.50;;;20.30;45.00;;;;;;5007566;28;20449;-81
2022/09/22 02:36:36;;;;;;;25.10;16.87;;;20.30;45.00;;;;;;5014318;28;20480;-80
2022/09/22 02:39:07;;;;;;;22.73;15.50;;;20.30;44.90;;;;;;4998154;28;20449;-80
2022/09/22 02:41:46;;;;;;;26.70;14.67;;;20.20;44.80;;;;;;5007618;28;20453;-80
2022/09/22 02:44:16;;;;;;;22.60;15.30;;;20.20;44.90;;;;;;5007891;28;20480;-81
2022/09/22 02:46:46;;;;;;;23.70;15.47;;;20.10;45.00;;;;;;5011230;28;20520;-81
2022/09/22 02:49:17;;;;;;;22.70;14.30;;;20.10;45.00;;;;;;5008548;28;20445;-80
2022/09/22 02:51:45;;;;;;;25.10;15.80;;;20.10;45.00;;;;;;5007094;28;20473;-80
2022/09/22 02:54:14;;;;;;;25.33;16.27;;;20.10;45.10;;;;;;5011894;28;20457;-80
2022/09/22 02:56:42;;;;;;;21.00;14.83;;;20.10;45.30;;;;;;5004437;28;20477;-81
2022/09/22 02:59:11;;;;;;;22.03;14.47;;;20.10;45.10;;;;;;4999286;28;20466;-81
2022/09/22 03:01:39;;;;;;;21.47;14.03;;;20.00;45.10;;;;;;5001731;28;20473;-80
2022/09/22 03:04:08;;;;;;;21.90;14.23;;;20.00;45.20;;;;;;5008710;28;20453;-80
2022/09/22 03:06:37;;;;;;;21.77;14.23;;;20.00;45.10;;;;;;5009011;28;20496;-81
2022/09/22 03:09:05;;;;;;;20.03;13.90;;;20.00;45.20;;;;;;5011265;28;20449;-80
2022/09/22 03:11:34;;;;;;;20.87;13.87;;;20.00;45.20;;;;;;5021139;28;20452;-80
2022/09/22 03:14:01;;;;;;;18.63;13.70;;;20.00;45.20;;;;;;4998466;28;20460;-80
2022/09/22 03:16:29;;;;;;;23.53;14.30;;;19.90;45.30;;;;;;5009260;28;20472;-80
2022/09/22 03:18:58;;;;;;;19.77;13.87;;;19.90;45.20;;;;;;5009953;28;20460;-80
2022/09/22 03:21:26;;;;;;;19.30;13.50;;;19.90;45.00;;;;;;5008796;28;20455;-81
2022/09/22 03:23:55;;;;;;;20.00;13.80;;;19.80;45.20;;;;;;5011882;28;20457;-80
2022/09/22 03:26:23;;;;;;;21.23;13.97;;;19.80;45.30;;;;;;5017103;28;20457;-80
2022/09/22 03:28:52;;;;;;;21.67;13.77;;;19.80;45.30;;;;;;5012126;28;20444;-80
2022/09/22 03:31:20;;;;;;;19.97;13.87;;;19.80;45.10;;;;;;5019150;28;20491;-80
2022/09/22 03:33:48;;;;;;;21.40;13.13;;;19.80;45.40;;;;;;5001872;28;20478;-80
2022/09/22 03:36:19;;;;;;;20.97;12.70;;;19.70;45.40;;;;;;4999476;28;20480;-80
2022/09/22 03:38:47;;;;;;;20.30;13.40;;;19.70;45.30;;;;;;5010533;28;20465;-80
2022/09/22 03:41:17;;;;;;;17.73;12.90;;;19.70;45.40;;;;;;5010011;28;20473;-80
2022/09/22 03:43:45;;;;;;;18.23;12.63;;;19.70;45.50;;;;;;5018549;28;20476;-80
2022/09/22 03:46:13;;;;;;;17.50;11.70;;;19.60;45.40;;;;;;5011894;28;20445;-80
2022/09/22 03:48:41;;;;;;;16.40;12.13;;;19.60;45.50;;;;;;4995750;28;20486;-81
2022/09/22 03:51:12;;;;;;;16.30;12.00;;;19.70;45.50;;;;;;4999066;28;20481;-81
2022/09/22 03:53:40;;;;;;;16.70;11.70;;;19.60;45.30;;;;;;5004925;28;20457;-81
2022/09/22 03:56:09;;;;;;;16.20;11.27;;;19.60;45.60;;;;;;5003806;28;20484;-80
2022/09/22 03:58:38;;;;;;;18.40;12.30;;;19.60;45.50;;;;;;5002730;28;20441;-80
2022/09/22 04:01:07;;;;;;;18.73;12.10;;;19.60;45.50;;;;;;5011469;28;20473;-80
2022/09/22 04:03:35;;;;;;;15.50;11.10;;;19.50;45.40;;;;;;5011743;28;20449;-80
2022/09/22 04:06:04;;;;;;;15.93;11.20;;;19.50;45.40;;;;;;5001225;28;20445;-80
2022/09/22 04:08:31;;;;;;;17.50;12.27;;;19.50;45.80;;;;;;5007422;28;20465;-80
2022/09/22 04:10:59;;;;;;;18.17;11.63;;;19.50;45.70;;;;;;5005513;28;20479;-80
2022/09/22 04:13:28;;;;;;;17.07;11.10;;;19.40;45.40;;;;;;5008128;28;20449;-80
2022/09/22 04:15:57;;;;;;;16.50;11.47;;;19.40;45.60;;;;;;5010926;28;20473;-80
2022/09/22 04:18:25;;;;;;;15.13;10.67;;;19.40;45.60;;;;;;5006063;28;20453;-80
2022/09/22 04:20:56;;;;;;;17.53;11.57;;;19.40;45.50;;;;;;5021441;28;20473;-80
2022/09/22 04:23:24;;;;;;;17.60;11.07;;;19.40;45.60;;;;;;5004246;28;20433;-80
2022/09/22 04:25:52;;;;;;;15.83;10.33;;;19.40;45.80;;;;;;5011616;28;20441;-80
2022/09/22 04:28:20;;;;;;;15.57;9.93;;;19.40;45.60;;;;;;5012218;28;20449;-80
2022/09/22 04:30:48;;;;;;;12.87;9.70;;;19.30;45.50;;;;;;5014529;28;20623;-80
2022/09/22 04:33:18;;;;;;;16.30;10.60;;;19.20;45.40;;;;;;5001886;28;20453;-80
2022/09/22 04:35:47;;;;;;;15.30;10.47;;;19.20;45.90;;;;;;5014246;28;20453;-81
2022/09/22 04:38:15;;;;;;;18.63;10.83;;;19.30;45.70;;;;;;5009884;28;20459;-80
2022/09/22 04:40:43;;;;;;;16.50;10.80;;;19.20;45.70;;;;;;5013344;28;20461;-80
2022/09/22 04:43:11;;;;;;;12.57;9.50;;;19.20;45.70;;;;;;5013428;28;20528;-80
2022/09/22 04:45:40;;;;;;;13.10;9.80;;;19.10;45.50;;;;;;5004059;28;20473;-80
2022/09/22 04:48:08;;;;;;;15.73;10.00;;;19.10;45.80;;;;;;5005141;28;20453;-80
2022/09/22 04:50:38;;;;;;;16.70;9.50;;;19.10;46.00;;;;;;5006733;28;20521;-80
2022/09/22 04:53:06;;;;;;;15.03;10.47;;;19.10;46.00;;;;;;5008528;28;20461;-80
2022/09/22 04:55:34;;;;;;;16.37;10.20;;;19.20;46.40;;;;;;5010694;28;20484;-80
2022/09/22 04:58:03;;;;;;;11.87;9.30;;;19.10;46.00;;;;;;5008903;28;20464;-80
2022/09/22 05:00:32;;;;;;;11.43;9.00;;;19.10;45.90;;;;;;5017684;28;20465;-80
2022/09/22 05:03:00;;;;;;;12.80;9.17;;;19.10;45.90;;;;;;5012485;28;20452;-80
2022/09/22 05:05:29;;;;;;;11.63;8.50;;;19.10;46.00;;;;;;5009654;28;20476;-80
2022/09/22 05:07:58;;;;;;;11.90;8.50;;;19.10;46.00;;;;;;5016362;28;20474;-80
2022/09/22 05:10:31;;;;;;;13.93;9.27;;;19.10;45.90;;;;;;5010170;28;20477;-79
2022/09/22 05:12:59;;;;;;;11.87;8.80;;;19.00;45.90;;;;;;5008933;28;20468;-80
2022/09/22 05:15:26;;;;;;;11.90;8.60;;;19.00;45.80;;;;;;5009996;28;20463;-80
2022/09/22 05:17:55;;;;;;;11.00;8.20;;;19.00;46.00;;;;;;5007260;28;20476;-80
2022/09/22 05:20:22;;;;;;;12.87;8.93;;;19.00;46.00;;;;;;5009836;28;20473;-80
2022/09/22 05:22:52;;;;;;;13.80;9.17;;;19.00;46.00;;;;;;5006871;28;20576;-80
2022/09/22 05:25:21;;;;;;;10.63;8.23;;;19.00;46.20;;;;;;5010092;28;20995;-80
2022/09/22 05:27:51;;;;;;;12.60;7.93;;;18.90;46.10;;;;;;5002271;28;20457;-80
2022/09/22 05:30:19;;;;;;;11.43;7.53;;;18.90;45.90;;;;;;5003882;28;20477;-80
2022/09/22 05:32:48;;;;;;;12.80;9.07;;;18.90;46.20;;;;;;5007393;28;20525;-79
2022/09/22 05:35:17;;;;;;;11.37;8.30;;;18.90;46.20;;;;;;5006563;28;20449;-79
2022/09/22 05:37:45;;;;;;;12.63;9.10;;;19.00;46.10;;;;;;5004960;28;20488;-79
2022/09/22 05:40:13;;;;;;;10.90;7.93;;;18.90;46.10;;;;;;5006628;28;20473;-80
2022/09/22 05:42:45;;;;;;;10.77;7.80;;;19.00;46.00;;;;;;5019522;28;20449;-79
2022/09/22 05:45:13;;;;;;;15.27;8.30;;;18.90;45.80;;;;;;5006383;28;20453;-79
2022/09/22 05:47:41;;;;;;;11.90;8.23;;;18.90;46.20;;;;;;5007662;28;20453;-79
2022/09/22 05:50:09;;;;;;;10.30;7.97;;;18.90;46.10;;;;;;5008350;28;20478;-79
2022/09/22 05:52:37;;;;;;;11.00;7.97;;;18.90;46.00;;;;;;5009047;28;20477;-79
2022/09/22 05:55:06;;;;;;;10.60;7.57;;;18.90;46.00;;;;;;5003591;28;20453;-80
2022/09/22 05:57:34;;;;;;;10.30;7.63;;;18.90;46.00;;;;;;5011983;28;20470;-79
2022/09/22 06:00:04;;;;;;;10.87;8.03;;;18.90;46.20;;;;;;5010539;28;20487;-79
2022/09/22 06:02:33;;;;;;;8.40;7.10;;;18.90;45.90;;;;;;5006429;28;20464;-80
2022/09/22 06:05:01;;;;;;;9.97;8.00;;;18.90;45.90;;;;;;5007562;28;20445;-79
2022/09/22 06:07:29;;;;;;;10.03;7.47;;;18.90;46.00;;;;;;5002453;28;20469;-79
2022/09/22 06:09:56;;;;;;;8.13;6.80;;;18.90;46.20;;;;;;5005759;28;20544;-80
2022/09/22 06:12:24;;;;;;;10.17;7.60;;;18.90;46.00;;;;;;4994314;28;20461;-79
2022/09/22 06:14:52;;;;;;;9.30;7.10;;;18.80;45.90;;;;;;5011689;28;20449;-80
2022/09/22 06:17:22;;;;;;;9.97;7.30;;;18.80;46.20;;;;;;5007602;28;20469;-79
2022/09/22 06:19:50;;;;;;;8.50;7.00;;;18.90;45.90;;;;;;5007572;28;20473;-79
2022/09/22 06:22:18;;;;;;;9.17;7.00;;;19.00;46.10;;;;;;5006420;28;20477;-79
2022/09/22 06:24:47;;;;;;;9.80;7.80;;;18.90;45.70;;;;;;5006972;28;20471;-79
2022/09/22 06:27:15;;;;;;;10.20;7.40;;;18.90;46.10;;;;;;5006568;28;20457;-79
2022/09/22 06:29:44;;;;;;;10.13;7.17;;;18.90;46.10;;;;;;5014030;28;20476;-80
2022/09/22 06:32:12;;;;;;;8.37;6.60;;;18.90;46.00;;;;;;5020034;28;20465;-79
2022/09/22 06:34:45;;;;;;;9.33;7.07;;;19.00;46.10;;;;;;5012971;28;20459;-79
2022/09/22 06:37:15;;;;;;;9.00;7.17;;;19.00;45.90;;;;;;5004957;28;20483;-79
2022/09/22 06:39:43;;;;;;;7.83;6.43;;;19.00;45.90;;;;;;5012952;28;20453;-79
2022/09/22 06:42:13;;;;;;;9.67;6.97;;;19.00;45.90;;;;;;5009594;28;20468;-80
2022/09/22 06:44:41;;;;;;;8.97;6.50;;;19.00;45.80;;;;;;5013177;28;20457;-80
2022/09/22 06:47:09;;;;;;;9.63;7.10;;;19.10;45.80;;;;;;5017054;28;20445;-79
2022/09/22 06:49:36;;;;;;;11.67;6.43;;;19.10;45.80;;;;;;5005210;28;20489;-80
2022/09/22 06:52:09;;;;;;;8.27;7.20;;;19.00;45.90;;;;;;5010020;28;20466;-79
2022/09/22 06:54:40;;;;;;;7.90;6.90;;;19.10;45.80;;;;;;5002250;28;20457;-79
2022/09/22 06:57:11;;;;;;;9.87;7.03;;;19.20;45.60;;;;;;4993958;28;20465;-80
2022/09/22 06:59:40;;;;;;;9.73;6.57;;;19.20;45.80;;;;;;4997230;28;20477;-78
2022/09/22 07:02:09;;;;;;;11.70;5.60;;;19.00;45.50;;;;;;4993481;28;20526;-77
2022/09/22 07:04:37;;;;;;;11.17;5.90;;;19.60;52.30;;;;;;4993898;28;20453;-79
2022/09/22 07:07:07;;;;;;;12.40;5.83;;;20.00;52.90;;;;;;4993406;28;20484;-78
2022/09/22 07:09:35;;;;;;;13.13;5.70;;;20.40;53.10;;;;;;4994723;28;20473;-78
2022/09/22 07:12:05;;;;;;;16.97;5.27;;;20.70;53.00;;;;;;4997243;28;20461;-77
2022/09/22 07:14:32;;;;;;;17.27;5.33;;;20.90;53.00;;;;;;4998150;28;20951;-76
2022/09/22 07:17:01;;;;;;;20.37;5.70;;;21.10;53.20;;;;;;5004034;28;20483;-78
2022/09/22 07:19:35;;;;;;;17.03;5.60;;;21.20;53.20;;;;;;4996552;28;20484;-78
2022/09/22 07:22:03;;;;;;;13.93;5.27;;;21.40;54.20;;;;;;4999677;28;20476;-77
2022/09/22 07:24:33;;;;;;;20.73;5.43;;;21.50;54.10;;;;;;5003186;28;20453;-77
2022/09/22 07:27:03;;;;;;;21.10;5.77;;;21.70;54.20;;;;;;4996894;28;20472;-77
2022/09/22 07:29:32;;;;;;;12.10;5.43;;;21.80;54.10;;;;;;4992209;28;20480;-79
2022/09/22 07:32:01;;;;;;;12.40;5.30;;;22.00;53.70;;;;;;5003910;28;20535;-79
2022/09/22 07:34:29;;;;;;;24.53;6.67;;;22.10;53.70;;;;;;5013857;28;20479;-82
2022/09/22 07:36:58;;;;;;;17.63;6.10;;;22.10;53.60;;;;;;4995235;28;21000;-75
2022/09/22 07:39:26;;;;;;;12.90;5.37;;;22.20;53.20;;;;;;4996970;28;20492;-81
2022/09/22 07:41:55;;;;;;;14.17;5.23;;;22.20;53.10;;;;;;4994956;28;20457;-75
2022/09/22 07:47:11;;;;;;;18.50;5.43;;;22.30;52.70;;;;;;4994251;28;20441;-77
2022/09/22 07:49:39;;;;;;;14.70;5.13;;;22.30;52.70;;;;;;5008450;28;20483;-79
2022/09/22 07:52:07;;;;;;;15.53;4.90;;;22.30;52.50;;;;;;4994237;28;20494;-78
2022/09/22 07:54:35;;;;;;;21.67;5.27;;;22.40;52.80;;;;;;4992808;28;20449;-77
2022/09/22 07:57:08;;;;;;;11.20;4.73;;;22.40;52.40;;;;;;4994830;28;20412;-76
2022/09/22 07:59:36;;;;;;;12.13;5.20;;;22.50;52.10;;;;;;4992291;28;20451;-76
2022/09/22 08:02:04;;;;;;;9.23;5.07;;;22.50;52.00;;;;;;4995186;28;20439;-77
2022/09/22 08:04:34;;;;;;;28.73;5.40;;;22.60;51.80;;;;;;5016414;28;20934;-80
2022/09/22 08:07:02;;;;;;;29.23;5.60;;;22.40;49.10;;;;;;5017047;28;20476;-81
2022/09/22 08:09:32;;;;;;;25.00;5.30;;;22.40;50.80;;;;;;5018961;28;20472;-82
2022/09/22 08:11:59;;;;;;;11.00;5.03;;;22.40;50.80;;;;;;5018266;28;20426;-82
2022/09/22 08:14:29;;;;;;;9.83;4.33;;;22.50;50.70;;;;;;5018320;28;20471;-82
2022/09/22 08:16:57;;;;;;;15.23;4.37;;;22.50;50.70;;;;;;5012907;28;20452;-81
2022/09/22 08:19:25;;;;;;;18.50;4.13;;;22.50;51.00;;;;;;5011290;28;20455;-81
2022/09/22 08:21:56;;;;;;;13.77;4.43;;;22.70;51.40;;;;;;5022636;28;20483;-80
2022/09/22 08:24:24;;;;;;;8.20;4.00;;;22.80;51.30;;;;;;5017533;28;20444;-78
2022/09/22 08:26:54;;;;;;;17.00;4.13;;;23.00;51.20;;;;;;5016464;28;20984;-82
2022/09/22 08:29:23;;;;;;;8.90;4.10;;;23.20;51.30;;;;;;5019444;28;20506;-83
2022/09/22 08:31:52;;;;;;;14.13;4.30;;;23.40;51.40;;;;;;5020851;28;20478;-81
2022/09/22 08:34:21;;;;;;;13.70;4.20;;;23.60;51.20;;;;;;5021287;28;20450;-83
2022/09/22 08:36:49;;;;;;;11.27;3.50;;;23.80;51.30;;;;;;5018211;28;20443;-84
2022/09/22 08:39:17;;;;;;;8.63;3.50;;;24.00;51.30;;;;;;5016671;28;20484;-83
2022/09/22 08:41:55;;;;;;;8.57;3.90;;;24.30;51.40;;;;;;5018486;28;20479;-83
2022/09/22 08:44:25;;;;;;;14.50;3.70;;;24.50;51.20;;;;;;5017589;28;20455;-76
2022/09/22 08:46:55;;;;;;;11.53;4.03;;;24.60;50.30;;;;;;5013259;28;20448;-76
2022/09/22 08:52:14;;;;;;;9.07;4.50;;;24.90;49.20;;;;;;5013047;28;20476;-79
2022/09/22 08:54:43;;;;;;;9.30;4.50;;;25.00;48.80;;;;;;5015088;28;20425;-78
2022/09/22 08:57:40;;;;;;;13.40;4.47;;;25.20;48.60;;;;;;4998301;28;20441;-78
2022/09/22 09:00:11;;;;;;;6.23;3.77;;;25.30;48.10;;;;;;4996562;28;20460;-80
2022/09/22 09:02:44;;;;;;;5.10;3.70;;;25.40;47.90;;;;;;4997974;28;20445;-79
2022/09/22 09:05:59;;;;;;;8.77;3.97;;;25.50;47.60;;;;;;4998729;28;20445;-78
2022/09/22 09:09:02;;;;;;;6.73;3.37;;;25.70;47.10;;;;;;4918114;29;20439;-80
2022/09/22 09:11:53;;;;;;;4.10;2.80;;;23.90;40.50;;;;;;4898505;29;20428;-79
2022/09/22 09:14:33;;;;;;;9.27;3.00;;;23.20;44.50;;;;;;4969980;28;20416;-78
2022/09/22 09:17:02;;;;;;;3.73;2.50;;;23.00;44.10;;;;;;4976861;28;20400;-78
2022/09/22 09:19:35;;;;;;;7.57;2.90;;;24.00;44.40;;;;;;4977179;28;20486;-78
2022/09/22 09:22:07;;;;;;;3.93;2.83;;;24.70;44.00;;;;;;4977261;28;20503;-77
2022/09/22 09:24:37;;;;;;;3.37;3.07;;;25.10;44.00;;;;;;4979497;28;20477;-76
2022/09/22 09:27:26;;;;;;;3.30;3.00;;;25.50;43.90;;;;;;4994941;28;20436;-76
2022/09/22 09:29:59;;;;;;;5.27;3.00;;;25.70;43.60;;;;;;5002481;28;20456;-79
2022/09/22 09:32:32;;;;;;;4.33;3.13;;;26.00;43.30;;;;;;4997263;28;20474;-78
2022/09/22 09:35:02;;;;;;;7.30;2.83;;;26.10;43.10;;;;;;4988739;28;20434;-79
2022/09/22 09:37:30;;;;;;;4.30;2.60;;;26.20;42.80;;;;;;4978149;28;20455;-79
2022/09/22 09:39:58;;;;;;;3.40;3.17;;;26.30;42.70;;;;;;4977735;28;20494;-78
2022/09/22 09:42:28;;;;;;;11.00;2.90;;;26.30;42.40;;;;;;4977832;28;20438;-77
2022/09/22 09:45:01;;;;;;;4.80;2.93;;;26.40;42.60;;;;;;5009603;28;20459;-77
2022/09/22 09:47:43;;;;;;;4.30;2.87;;;26.50;42.40;;;;;;5016415;28;20415;-79
2022/09/22 09:50:12;;;;;;;6.00;3.17;;;26.70;42.30;;;;;;5019643;28;20443;-81
2022/09/22 09:52:41;;;;;;;5.53;3.10;;;26.70;42.00;;;;;;5022952;28;20815;-79
2022/09/22 09:55:17;;;;;;;12.73;2.90;;;26.80;42.00;;;;;;5020514;28;20479;-78
2022/09/22 09:58:04;;;;;;;4.70;3.13;;;26.90;41.80;;;;;;5017044;28;20452;-78
2022/09/22 10:00:31;;;;;;;5.20;3.20;;;27.00;41.50;;;;;;5012675;28;20539;-79
2022/09/22 10:03:11;;;;;;;7.03;3.80;;;27.10;41.40;;;;;;4999906;28;20455;-79
2022/09/22 10:05:42;;;;;;;7.73;2.80;;;27.10;41.30;;;;;;5003043;28;20453;-79
2022/09/22 10:08:18;;;;;;;6.50;3.50;;;27.10;41.40;;;;;;5003637;28;20872;-78
2022/09/22 10:10:47;;;;;;;3.60;2.70;;;27.20;41.20;;;;;;5002194;28;20435;-78
2022/09/22 10:13:26;;;;;;;5.70;3.10;;;27.20;41.00;;;;;;5002058;28;20492;-78
2022/09/22 10:16:02;;;;;;;5.43;3.13;;;27.20;41.00;;;;;;5001725;28;20473;-78
2022/09/22 10:18:34;;;;;;;4.63;3.30;;;27.30;41.20;;;;;;5002373;28;20453;-79
2022/09/22 10:21:06;;;;;;;4.13;3.00;;;27.30;41.00;;;;;;5001206;28;20435;-78
2022/09/22 10:23:34;;;;;;;11.50;3.90;;;27.30;40.80;;;;;;4991731;28;20457;-78
2022/09/22 10:26:20;;;;;;;3.27;3.07;;;27.30;40.90;;;;;;5017204;28;20444;-78
2022/09/22 10:29:07;;;;;;;5.60;3.00;;;27.40;41.00;;;;;;5020286;28;20450;-78
2022/09/22 10:31:37;;;;;;;8.10;3.30;;;27.40;40.80;;;;;;5021868;28;20455;-78
2022/09/22 10:34:05;;;;;;;3.40;3.20;;;27.40;40.70;;;;;;5017423;28;20460;-78
2022/09/22 10:36:34;;;;;;;6.93;3.27;;;27.30;40.50;;;;;;5002367;28;20496;-78
2022/09/22 10:39:03;;;;;;;5.43;2.97;;;27.20;40.80;;;;;;5003870;28;20473;-78
2022/09/22 10:41:33;;;;;;;3.53;3.00;;;27.30;40.90;;;;;;5004446;28;20453;-78
2022/09/22 10:44:01;;;;;;;5.03;3.20;;;27.50;40.80;;;;;;5004110;28;20455;-78
2022/09/22 10:47:20;;;;;;;3.30;3.00;;;27.50;40.50;;;;;;5005251;28;20446;-78
2022/09/22 10:50:06;;;;;;;3.83;3.43;;;27.60;40.40;;;;;;5005151;28;20435;-78
2022/09/22 10:52:38;;;;;;;3.63;3.27;;;27.70;40.30;;;;;;5011878;28;20472;-78
2022/09/22 10:55:17;;;;;;;4.20;3.03;;;27.70;40.20;;;;;;5021552;28;20447;-78
2022/09/22 10:57:56;;;;;;;3.80;3.23;;;27.70;40.20;;;;;;5020943;28;20853;-78
2022/09/22 11:00:25;;;;;;;7.13;3.73;;;27.80;39.80;;;;;;5020642;28;20480;-78
2022/09/22 11:03:18;;;;;;;4.70;3.43;;;27.90;39.80;;;;;;5012527;28;20445;-78
2022/09/22 11:14:31;;;;;;;9.60;3.57;;;28.00;39.90;;;;;;5003964;28;20420;-79
2022/09/22 11:17:09;;;;;;;5.13;3.10;;;28.00;39.60;;;;;;5001263;28;20419;-78
2022/09/22 11:19:43;;;;;;;5.93;3.17;;;28.00;39.40;;;;;;5001501;28;20488;-78
2022/09/22 11:22:23;;;;;;;3.90;3.17;;;27.90;39.80;;;;;;5000523;28;20439;-78
2022/09/22 11:24:59;;;;;;;4.13;3.47;;;27.70;39.70;;;;;;5000479;28;20448;-78
2022/09/22 11:27:35;;;;;;;5.90;3.07;;;27.50;40.30;;;;;;5000269;28;20454;-78
2022/09/22 11:30:08;;;;;;;3.43;3.23;;;27.70;40.20;;;;;;5000639;28;20434;-78
2022/09/22 11:32:56;;;;;;;4.70;3.87;;;27.80;40.00;;;;;;4999874;28;20491;-78
2022/09/22 11:35:49;;;;;;;5.23;3.00;;;27.90;39.70;;;;;;4999158;28;20444;-78
2022/09/22 11:38:30;;;;;;;3.77;3.47;;;27.60;39.80;;;;;;4994701;28;20411;-78
2022/09/22 11:41:15;;;;;;;3.00;2.80;;;27.30;40.30;;;;;;4999920;28;20455;-78
2022/09/22 11:43:50;;;;;;;6.00;3.30;;;27.30;41.40;;;;;;4999676;28;20422;-78
2022/09/22 11:46:22;;;;;;;3.47;3.17;;;27.50;40.50;;;;;;5000191;28;20516;-78
2022/09/22 11:48:58;;;;;;;3.13;2.80;;;27.60;40.10;;;;;;5000188;28;20997;-78
2022/09/22 11:51:33;;;;;;;3.07;2.90;;;27.50;39.90;;;;;;4999469;28;20455;-78
2022/09/22 11:54:14;;;;;;;4.77;3.03;;;27.30;40.20;;;;;;5011406;28;20415;-78
2022/09/22 11:56:44;;;;;;;3.27;3.07;;;27.10;40.60;;;;;;5018918;28;20468;-79
2022/09/22 11:59:18;;;;;;;9.57;3.20;;;27.10;41.00;;;;;;5015298;28;20460;-78
2022/09/22 12:01:46;;;;;;;9.37;3.37;;;27.00;41.30;;;;;;4995499;28;20410;-79
2022/09/22 12:04:19;;;;;;;9.53;3.57;;;27.10;41.60;;;;;;5006927;28;20465;-78
2022/09/22 12:06:49;;;;;;;4.93;3.00;;;27.40;41.10;;;;;;5017495;28;20464;-78
2022/09/22 12:09:29;;;;;;;7.47;3.30;;;27.50;40.60;;;;;;5018573;28;20456;-78
2022/09/22 12:12:04;;;;;;;3.33;3.03;;;27.60;40.10;;;;;;5018851;28;20443;-78
2022/09/22 12:14:32;;;;;;;4.37;2.90;;;27.50;40.20;;;;;;5015724;28;20448;-78
2022/09/22 12:17:04;;;;;;;3.17;2.87;;;27.50;40.30;;;;;;5015482;28;20419;-78
2022/09/22 12:19:38;;;;;;;3.70;2.90;;;27.40;40.40;;;;;;5002258;28;20479;-79
2022/09/22 12:22:10;;;;;;;6.27;3.43;;;27.50;40.30;;;;;;4997324;28;20465;-78
2022/09/22 12:24:38;;;;;;;4.90;2.90;;;27.70;40.30;;;;;;4996172;28;20445;-78
2022/09/22 12:27:11;;;;;;;2.90;2.67;;;27.80;39.80;;;;;;4998050;28;20420;-78
2022/09/22 12:29:40;;;;;;;4.80;3.00;;;27.90;39.60;;;;;;4998584;28;20463;-78
2022/09/22 12:32:20;;;;;;;2.70;2.50;;;28.00;39.50;;;;;;4998831;28;20468;-78
2022/09/22 12:34:48;;;;;;;3.87;3.30;;;28.00;39.00;;;;;;4995503;28;20423;-78
2022/09/22 12:37:21;;;;;;;5.87;2.70;;;27.90;38.90;;;;;;5000640;28;20439;-79
2022/09/22 12:39:49;;;;;;;4.80;2.60;;;27.80;39.30;;;;;;4995225;28;20451;-78
2022/09/22 12:42:20;;;;;;;3.93;2.70;;;27.50;39.80;;;;;;4995221;28;20452;-78
2022/09/22 12:44:51;;;;;;;3.60;2.77;;;27.40;40.00;;;;;;4995747;28;20431;-79
2022/09/22 12:47:20;;;;;;;3.70;3.40;;;27.30;40.50;;;;;;4996522;28;20448;-78
2022/09/22 12:49:49;;;;;;;4.33;2.90;;;27.20;40.50;;;;;;4996659;28;20444;-78
2022/09/22 12:53:01;;;;;;;3.27;3.07;;;27.30;40.60;;;;;;4993658;28;20461;-78
2022/09/22 12:55:37;;;;;;;2.50;2.40;;;27.20;40.40;;;;;;4982595;28;20487;-77
2022/09/22 12:58:39;;;;;;;3.13;2.77;;;27.20;40.40;;;;;;4994156;28;20441;-78
2022/09/22 13:01:28;;;;;;;2.90;2.60;;;27.10;40.70;;;;;;4994284;28;20511;-78
2022/09/22 13:04:05;;;;;;;3.63;2.97;;;27.00;40.90;;;;;;4993762;28;20488;-77
2022/09/22 13:06:53;;;;;;;2.90;2.80;;;26.90;41.00;;;;;;4995536;28;20472;-78
2022/09/22 13:09:23;;;;;;;3.10;2.83;;;27.20;40.90;;;;;;4991084;28;20502;-77
2022/09/22 13:12:25;;;;;;;3.87;2.90;;;27.40;40.50;;;;;;5003779;28;20467;-77
2022/09/22 13:15:23;;;;;;;3.90;2.50;;;27.50;40.10;;;;;;4995814;28;20503;-78
2022/09/22 13:17:51;;;;;;;2.53;2.33;;;27.70;40.10;;;;;;4996259;28;20443;-78